Time;durP1;ratioP1;P1;durP2;ratioP2;P2;SDS_P1;SDS_P2;PMS_P1;PMS_P2;Temp;Humidity;BMP_temperature;BMP_pressure;BME280_temperature;BME280_humidity;BME280_pressure;Samples;Min_cycle;Max_cycle;Signal;HPM_P1;HPM_P2
2022/08/16 00:01:46;;;;;;;64.90;48.00;;;;;;;20.91;61.14;98662.03;5086955;28;20503;-68
2022/08/16 00:04:13;;;;;;;43.53;30.80;;;;;;;20.92;60.91;98664.56;5086772;28;20079;-70
2022/08/16 00:06:40;;;;;;;13.73;7.45;;;;;;;20.91;61.19;98660.19;5084573;28;20530;-69
2022/08/16 00:09:08;;;;;;;11.60;6.18;;;;;;;20.89;61.20;98664.88;5087968;28;20052;-69
2022/08/16 00:11:34;;;;;;;19.92;12.82;;;;;;;20.84;61.56;98663.72;5087424;28;20054;-71
2022/08/16 00:14:01;;;;;;;9.90;6.85;;;;;;;20.82;61.44;98663.03;5088740;28;20051;-69
2022/08/16 00:16:31;;;;;;;5.88;3.72;;;;;;;20.76;61.74;98668.06;5091436;28;20044;-70
2022/08/16 00:18:58;;;;;;;5.45;4.03;;;;;;;20.78;61.56;98667.91;5092055;28;20530;-71
2022/08/16 00:21:25;;;;;;;5.57;3.70;;;;;;;20.77;61.58;98668.91;5091132;28;20059;-68
2022/08/16 00:23:52;;;;;;;8.27;3.38;;;;;;;20.74;61.75;98662.03;5090495;28;20048;-68
2022/08/16 00:26:18;;;;;;;5.45;3.08;;;;;;;20.73;61.97;98671.09;5090793;28;20058;-70
2022/08/16 00:28:45;;;;;;;4.82;3.60;;;;;;;20.76;61.78;98675.28;5090956;28;20048;-70
2022/08/16 00:31:11;;;;;;;4.35;3.03;;;;;;;20.74;62.00;98674.59;5090857;28;20059;-70
2022/08/16 00:33:39;;;;;;;4.82;3.33;;;;;;;20.73;61.74;98680.97;5090762;28;20050;-69
2022/08/16 00:36:06;;;;;;;6.35;4.07;;;;;;;20.70;61.75;98676.78;5090264;28;20064;-70
2022/08/16 00:38:32;;;;;;;7.40;3.67;;;;;;;20.68;61.87;98683.31;5090920;28;20591;-71
2022/08/16 00:41:00;;;;;;;8.75;4.13;;;;;;;20.69;61.99;98684.97;5090884;28;20055;-69
2022/08/16 00:43:30;;;;;;;5.25;3.25;;;;;;;20.65;61.97;98684.50;5090897;28;20047;-69
2022/08/16 00:46:07;;;;;;;4.47;3.40;;;;;;;20.66;61.93;98688.00;5093231;28;20051;-69
2022/08/16 00:48:34;;;;;;;5.32;3.92;;;;;;;20.62;62.18;98686.66;5094717;28;20150;-68
2022/08/16 00:51:03;;;;;;;6.30;3.63;;;;;;;20.63;62.10;98694.53;5104375;28;20054;-70
2022/08/16 00:53:30;;;;;;;4.10;2.80;;;;;;;20.65;62.21;98687.16;5114411;28;20048;-70
2022/08/16 00:56:00;;;;;;;7.05;3.42;;;;;;;20.66;62.12;98690.69;5107290;28;20052;-70
2022/08/16 00:58:31;;;;;;;6.10;3.65;;;;;;;20.63;62.09;98688.34;5092632;28;20160;-70
2022/08/16 01:00:58;;;;;;;4.97;3.95;;;;;;;20.60;62.20;98692.19;5091209;28;20055;-70
2022/08/16 01:03:27;;;;;;;7.95;3.70;;;;;;;20.59;62.15;98685.97;5090597;28;20139;-69
2022/08/16 01:05:55;;;;;;;5.53;3.63;;;;;;;20.58;62.30;98688.84;5089740;28;20048;-69
2022/08/16 01:08:25;;;;;;;5.25;2.85;;;;;;;20.58;62.17;98689.66;5090122;28;20066;-69
2022/08/16 01:10:52;;;;;;;4.63;3.33;;;;;;;20.61;62.29;98693.03;5090174;28;20145;-69
2022/08/16 01:13:22;;;;;;;3.47;2.75;;;;;;;20.59;62.13;98691.31;5089913;28;20154;-69
2022/08/16 01:15:52;;;;;;;4.38;3.38;;;;;;;20.56;62.37;98688.16;5088923;28;20534;-70
2022/08/16 01:18:21;;;;;;;8.27;3.60;;;;;;;20.52;62.28;98692.13;5090013;28;20135;-67
2022/08/16 01:20:56;;;;;;;5.40;3.38;;;;;;;20.54;62.36;98690.13;5090171;28;20044;-70
2022/08/16 01:23:31;;;;;;;8.88;3.90;;;;;;;20.53;62.37;98691.16;5090004;28;20048;-70
2022/08/16 01:25:59;;;;;;;;;;;;;;;20.55;62.11;98698.03;5089204;28;20044;-70
2022/08/16 01:28:27;;;;;;;5.05;3.58;;;;;;;20.54;62.41;98703.53;5089881;28;20299;-70
2022/08/16 01:30:57;;;;;;;5.20;3.55;;;;;;;20.56;62.41;98693.50;5089826;28;20134;-69
2022/08/16 01:33:24;;;;;;;5.50;3.95;;;;;;;20.55;62.36;98691.81;5089531;28;20158;-69
2022/08/16 01:35:55;;;;;;;5.00;3.28;;;;;;;20.56;62.41;98693.50;5088929;28;20143;-69
2022/08/16 01:38:26;;;;;;;5.82;3.67;;;;;;;20.55;62.13;98684.66;5089604;28;20132;-70
2022/08/16 01:40:56;;;;;;;4.13;3.35;;;;;;;20.54;62.19;98685.59;5089662;28;20090;-69
2022/08/16 01:43:25;;;;;;;6.57;3.40;;;;;;;20.52;62.65;98682.25;5089444;28;20464;-70
2022/08/16 01:45:57;;;;;;;6.30;3.60;;;;;;;20.55;62.33;98690.00;5090614;28;20054;-70
2022/08/16 01:48:27;;;;;;;5.50;3.22;;;;;;;20.53;62.47;98689.28;5101256;28;20642;-70
2022/08/16 01:50:53;;;;;;;4.43;3.70;;;;;;;20.52;62.62;98684.94;5109576;28;20058;-70
2022/08/16 01:53:20;;;;;;;6.90;3.78;;;;;;;20.50;62.55;98689.63;5099022;28;20047;-70
2022/08/16 01:55:47;;;;;;;6.80;3.42;;;;;;;20.47;62.89;98687.25;5088444;28;20050;-70
2022/08/16 01:58:15;;;;;;;7.20;3.83;;;;;;;20.47;62.83;98692.63;5089081;28;20044;-69
2022/08/16 02:00:44;;;;;;;5.72;3.90;;;;;;;20.42;63.11;98689.59;5079660;28;20075;-70
2022/08/16 02:03:11;;;;;;;4.85;3.80;;;;;;;20.39;63.03;98695.28;5071199;28;20078;-69
2022/08/16 02:05:39;;;;;;;3.95;3.25;;;;;;;20.39;63.17;98689.94;5067965;28;20048;-69
2022/08/16 02:08:06;;;;;;;5.28;3.30;;;;;;;20.38;63.24;98688.28;5068611;28;20054;-70
2022/08/16 02:10:33;;;;;;;4.38;3.70;;;;;;;20.36;63.36;98691.13;5071366;28;20062;-68
2022/08/16 02:12:59;;;;;;;5.43;4.05;;;;;;;20.35;63.47;98686.78;5068727;28;20490;-69
2022/08/16 02:15:28;;;;;;;6.20;3.60;;;;;;;20.35;63.37;98685.91;5086334;28;20046;-69
2022/08/16 02:17:59;;;;;;;3.92;2.65;;;;;;;20.35;63.52;98684.09;5088424;28;20051;-68
2022/08/16 02:20:28;;;;;;;4.07;3.20;;;;;;;20.32;63.67;98689.75;5088783;28;20054;-69
2022/08/16 02:22:54;;;;;;;4.00;3.03;;;;;;;20.35;63.47;98686.78;5088633;28;20052;-69
2022/08/16 02:25:21;;;;;;;4.95;3.70;;;;;;;20.30;63.74;98683.72;5087703;28;20051;-70
2022/08/16 02:27:48;;;;;;;5.22;3.78;;;;;;;20.30;63.58;98680.22;5088580;28;20044;-70
2022/08/16 02:30:18;;;;;;;4.70;3.58;;;;;;;20.29;63.70;98679.38;5088651;28;20090;-69
2022/08/16 02:32:45;;;;;;;3.90;3.08;;;;;;;20.27;63.90;98684.06;5088010;28;20492;-69
2022/08/16 02:35:13;;;;;;;4.88;2.92;;;;;;;20.27;63.80;98681.38;5087648;28;20055;-69
2022/08/16 02:37:40;;;;;;;4.85;3.70;;;;;;;20.27;63.63;98683.22;5087764;28;20048;-69
2022/08/16 02:40:09;;;;;;;6.15;3.38;;;;;;;20.25;64.06;98683.38;5088376;28;20047;-70
2022/08/16 02:42:35;;;;;;;5.82;3.00;;;;;;;20.26;64.08;98681.56;5096631;28;20078;-71
2022/08/16 02:45:02;;;;;;;3.78;3.15;;;;;;;20.30;63.87;98682.91;5099593;28;20517;-69
2022/08/16 02:47:29;;;;;;;5.85;3.63;;;;;;;20.28;63.98;98676.88;5108590;28;20058;-69
2022/08/16 02:49:55;;;;;;;5.93;3.55;;;;;;;20.29;63.89;98687.41;5095687;28;20143;-69
2022/08/16 02:52:23;;;;;;;6.15;3.55;;;;;;;20.25;64.07;98683.38;5088062;28;20590;-69
2022/08/16 02:54:50;;;;;;;5.18;3.30;;;;;;;20.28;63.98;98683.09;5088306;28;20419;-69
2022/08/16 02:57:18;;;;;;;9.70;3.25;;;;;;;20.28;64.05;98674.19;5089589;28;20044;-69
2022/08/16 02:59:44;;;;;;;5.85;3.85;;;;;;;20.28;63.79;98677.72;5088943;28;20048;-69
2022/08/16 03:02:12;;;;;;;4.05;3.25;;;;;;;20.29;63.95;98675.88;5088799;28;20167;-69
2022/08/16 03:04:39;;;;;;;6.28;3.35;;;;;;;20.28;64.10;98677.72;5087950;28;20094;-69
2022/08/16 03:07:06;;;;;;;5.32;3.65;;;;;;;20.27;64.11;98681.38;5089600;28;20052;-69
2022/08/16 03:09:35;;;;;;;3.95;3.20;;;;;;;20.28;64.03;98684.91;5089490;28;20164;-68
2022/08/16 03:12:03;;;;;;;3.78;3.17;;;;;;;20.24;64.12;98678.22;5087979;28;20048;-68
2022/08/16 03:14:29;;;;;;;4.43;3.55;;;;;;;20.20;64.22;98685.72;5086899;28;20054;-68
2022/08/16 03:16:56;;;;;;;4.10;3.42;;;;;;;20.16;64.46;98685.22;5087681;28;20132;-69
2022/08/16 03:19:24;;;;;;;4.60;3.03;;;;;;;20.16;64.47;98684.38;5087753;28;20048;-68
2022/08/16 03:21:50;;;;;;;5.22;3.85;;;;;;;20.13;64.81;98682.88;5087988;28;20427;-68
2022/08/16 03:24:17;;;;;;;4.40;3.55;;;;;;;20.11;64.74;98684.88;5086914;28;20044;-69
2022/08/16 03:26:45;;;;;;;5.65;3.05;;;;;;;20.10;64.92;98690.38;5087658;28;20048;-68
2022/08/16 03:29:12;;;;;;;6.40;3.28;;;;;;;20.07;64.95;98690.72;5087902;28;20058;-69
2022/08/16 03:31:38;;;;;;;4.50;3.60;;;;;;;20.03;65.16;98695.53;5087692;28;20076;-68
2022/08/16 03:34:05;;;;;;;4.28;3.47;;;;;;;20.01;65.13;98688.69;5087149;28;20056;-69
2022/08/16 03:36:32;;;;;;;5.32;3.38;;;;;;;19.98;65.07;98689.00;5087927;28;20066;-68
2022/08/16 03:38:58;;;;;;;4.93;3.45;;;;;;;19.92;65.53;98686.00;5096470;28;20058;-69
2022/08/16 03:41:26;;;;;;;4.18;3.72;;;;;;;19.91;65.41;98689.69;5102599;28;20044;-70
2022/08/16 03:43:54;;;;;;;4.20;3.50;;;;;;;19.93;65.57;98689.50;5107412;28;20046;-69
2022/08/16 03:46:21;;;;;;;4.53;3.67;;;;;;;19.93;65.55;98687.66;5093422;28;20056;-68
2022/08/16 03:48:48;;;;;;;4.55;2.95;;;;;;;19.90;65.79;98687.97;5090869;28;20048;-68
2022/08/16 03:51:16;;;;;;;9.10;3.78;;;;;;;19.93;65.79;98687.66;5091536;28;20048;-68
2022/08/16 03:53:43;;;;;;;4.75;4.25;;;;;;;19.89;65.89;98689.00;5087655;28;20063;-68
2022/08/16 03:56:11;;;;;;;5.85;4.43;;;;;;;19.89;65.93;98699.69;5090829;28;20048;-68
2022/08/16 03:58:37;;;;;;;4.70;3.70;;;;;;;19.87;66.04;98691.00;5091644;28;20051;-68
2022/08/16 04:01:05;;;;;;;6.43;4.05;;;;;;;19.89;65.86;98698.88;5079045;28;20052;-67
2022/08/16 04:03:32;;;;;;;3.67;3.08;;;;;;;19.87;66.20;98700.84;5070860;28;20058;-68
2022/08/16 04:05:59;;;;;;;4.97;3.50;;;;;;;19.90;66.18;98698.69;5070396;28;20048;-68
2022/08/16 04:08:26;;;;;;;4.45;3.88;;;;;;;19.90;66.19;98698.69;5070780;28;20059;-69
2022/08/16 04:10:54;;;;;;;4.50;3.70;;;;;;;19.88;66.22;98700.69;5071274;28;20063;-69
2022/08/16 04:13:21;;;;;;;3.95;3.47;;;;;;;19.87;66.27;98695.50;5072486;28;20045;-69
2022/08/16 04:15:48;;;;;;;4.78;3.45;;;;;;;19.89;66.38;98706.88;5090530;28;20040;-70
2022/08/16 04:18:16;;;;;;;5.53;3.38;;;;;;;19.88;66.25;98711.38;5091136;28;20062;-70
2022/08/16 04:20:43;;;;;;;5.60;3.50;;;;;;;19.89;66.39;98705.03;5087642;28;20515;-70
2022/08/16 04:23:10;;;;;;;6.00;3.92;;;;;;;19.92;66.32;98704.72;5090571;28;20418;-69
2022/08/16 04:25:37;;;;;;;6.68;3.30;;;;;;;19.94;66.24;98708.06;5090055;28;20051;-68
2022/08/16 04:28:04;;;;;;;5.10;4.07;;;;;;;19.92;66.33;98704.72;5091036;28;20146;-69
2022/08/16 04:30:31;;;;;;;4.38;3.40;;;;;;;19.86;66.71;98710.72;5090816;28;20423;-69
2022/08/16 04:32:57;;;;;;;6.90;4.10;;;;;;;19.88;66.62;98710.53;5090538;28;20134;-69
2022/08/16 04:35:26;;;;;;;5.03;3.22;;;;;;;19.88;66.66;98713.22;5097989;28;20075;-70
2022/08/16 04:37:53;;;;;;;4.57;3.58;;;;;;;19.82;67.05;98709.34;5109413;28;20526;-69
2022/08/16 04:40:23;;;;;;;5.68;3.55;;;;;;;19.85;66.78;98702.84;5111063;28;20693;-69
2022/08/16 04:42:51;;;;;;;5.22;3.15;;;;;;;19.84;66.78;98710.03;5094897;28;20055;-69
2022/08/16 04:45:18;;;;;;;5.10;3.40;;;;;;;19.79;66.97;98703.47;5089838;28;20040;-69
2022/08/16 04:47:45;;;;;;;4.38;3.65;;;;;;;19.77;67.04;98710.84;5090656;28;20075;-69
2022/08/16 04:50:14;;;;;;;4.70;3.58;;;;;;;19.75;67.05;98708.31;5089849;28;20054;-69
2022/08/16 04:52:44;;;;;;;4.43;3.50;;;;;;;19.76;67.00;98709.16;5090287;28;20056;-69
2022/08/16 04:55:17;;;;;;;5.15;4.22;;;;;;;19.76;67.05;98712.66;5089858;28;20059;-69
2022/08/16 04:57:45;;;;;;;5.15;4.20;;;;;;;19.72;67.16;98711.31;5090784;28;20399;-69
2022/08/16 05:00:15;;;;;;;6.53;4.25;;;;;;;19.72;67.29;98711.31;5089442;28;20063;-67
2022/08/16 05:02:42;;;;;;;4.35;3.80;;;;;;;19.69;67.45;98709.81;5090935;28;20059;-69
2022/08/16 05:05:11;;;;;;;5.45;3.92;;;;;;;19.72;67.42;98719.34;5089983;28;20564;-70
2022/08/16 05:07:37;;;;;;;4.25;3.70;;;;;;;19.74;67.34;98712.00;5090775;28;20058;-69
2022/08/16 05:10:07;;;;;;;6.40;3.53;;;;;;;19.79;67.33;98719.53;5090789;28;20526;-70
2022/08/16 05:12:34;;;;;;;4.07;3.63;;;;;;;19.85;67.00;98734.94;5091167;28;20055;-70
2022/08/16 05:15:02;;;;;;;5.40;4.10;;;;;;;19.89;66.86;98728.28;5090132;28;20040;-69
2022/08/16 05:17:30;;;;;;;7.03;3.97;;;;;;;19.90;66.86;98729.94;5090668;28;20058;-69
2022/08/16 05:19:57;;;;;;;5.68;4.43;;;;;;;19.89;67.20;98739.81;5090213;28;20412;-70
2022/08/16 05:22:24;;;;;;;9.30;4.28;;;;;;;19.91;67.03;98743.19;5090540;28;20052;-70
2022/08/16 05:24:50;;;;;;;4.45;3.92;;;;;;;19.94;66.78;98734.81;5089698;28;20052;-70
2022/08/16 05:27:18;;;;;;;5.95;3.95;;;;;;;19.97;66.96;98738.19;5090355;28;20052;-68
2022/08/16 05:29:45;;;;;;;4.38;3.88;;;;;;;19.97;67.19;98739.00;5090269;28;20456;-70
2022/08/16 05:32:12;;;;;;;7.05;4.05;;;;;;;20.03;67.07;98742.88;5098847;28;20147;-70
2022/08/16 05:34:38;;;;;;;4.80;3.38;;;;;;;20.08;66.96;98744.09;5089778;28;20043;-69
2022/08/16 05:37:05;;;;;;;5.10;3.85;;;;;;;20.14;66.96;98748.78;5092440;28;20052;-69
2022/08/16 05:39:31;;;;;;;4.93;3.90;;;;;;;20.21;66.89;98753.50;5072984;28;20053;-69
2022/08/16 05:41:58;;;;;;;4.50;4.00;;;;;;;20.23;66.45;98763.03;5070912;28;20048;-69
2022/08/16 05:44:26;;;;;;;6.60;4.57;;;;;;;20.28;66.28;98759.84;5070788;28;20117;-70
2022/08/16 05:46:55;;;;;;;4.70;4.20;;;;;;;20.33;65.94;98769.06;5070926;28;20047;-69
2022/08/16 05:49:22;;;;;;;5.40;3.30;;;;;;;20.40;65.76;98769.25;5069792;28;20546;-69
2022/08/16 05:51:49;;;;;;;4.97;3.97;;;;;;;20.49;65.88;98772.78;5069524;28;20519;-70
2022/08/16 05:54:17;;;;;;;6.05;3.67;;;;;;;20.54;65.80;98765.09;5069184;28;20048;-70
2022/08/16 05:56:45;;;;;;;9.45;4.55;;;;;;;20.58;65.36;98770.00;5085566;28;20055;-70
2022/08/16 05:59:13;;;;;;;4.03;3.63;;;;;;;20.71;65.13;98761.47;5089688;28;20044;-46
2022/08/16 06:01:43;;;;;;;4.15;3.75;;;;;;;20.87;64.55;98759.81;5087154;28;20044;-51
2022/08/16 06:04:12;;;;;;;4.45;3.67;;;;;;;21.01;63.88;98757.31;5088787;28;20150;-50
2022/08/16 06:06:39;;;;;;;6.40;4.63;;;;;;;21.14;63.35;98764.00;5089632;28;20052;-47
2022/08/16 06:09:05;;;;;;;6.30;4.15;;;;;;;21.23;62.95;98757.63;5089515;28;20059;-51
2022/08/16 06:11:32;;;;;;;5.45;4.25;;;;;;;21.27;63.19;98750.94;5088579;28;20059;-49
2022/08/16 06:13:58;;;;;;;7.38;3.85;;;;;;;21.35;62.68;98752.78;5082439;28;20053;-48
2022/08/16 06:16:25;;;;;;;5.43;3.42;;;;;;;21.41;62.86;98755.66;5069325;28;20041;-51
2022/08/16 06:18:53;;;;;;;5.20;3.33;;;;;;;21.56;62.11;98757.59;5069472;28;20580;-48
2022/08/16 06:21:19;;;;;;;8.45;4.40;;;;;;;21.62;62.30;98757.75;5069187;28;20052;-49
2022/08/16 06:23:46;;;;;;;7.10;4.50;;;;;;;21.70;61.59;98764.94;5069926;28;20052;-51
2022/08/16 06:26:13;;;;;;;9.65;4.18;;;;;;;21.70;61.78;98766.81;5086806;28;20440;-67
2022/08/16 06:28:40;;;;;;;5.22;4.63;;;;;;;21.76;61.66;98771.50;5098701;28;20234;-66
2022/08/16 06:31:09;;;;;;;9.65;3.70;;;;;;;21.88;61.82;98778.16;5110556;28;20069;-51
2022/08/16 06:33:36;;;;;;;4.95;3.60;;;;;;;22.01;61.07;98780.31;5108084;28;20138;-50
2022/08/16 06:36:07;;;;;;;4.25;3.13;;;;;;;22.08;60.72;98776.75;5088760;28;20135;-48
2022/08/16 06:38:35;;;;;;;3.47;3.08;;;;;;;22.11;60.67;98777.41;5089112;28;20052;-50
2022/08/16 06:41:03;;;;;;;6.20;3.20;;;;;;;22.22;60.35;98779.72;5089224;28;20127;-52
2022/08/16 06:43:30;;;;;;;7.55;3.78;;;;;;;22.34;59.68;98781.00;5089094;28;20142;-51
2022/08/16 06:45:57;;;;;;;7.40;3.88;;;;;;;22.50;59.19;98777.41;5088008;28;20407;-48
2022/08/16 06:48:23;;;;;;;7.75;3.50;;;;;;;22.61;59.06;98784.22;5089114;28;20048;-50
2022/08/16 06:50:51;;;;;;;13.38;4.28;;;;;;;22.65;58.73;98778.31;5088963;28;20058;-53
2022/08/16 06:53:19;;;;;;;7.45;3.78;;;;;;;22.74;58.45;98789.84;5088819;28;20961;-50
2022/08/16 06:55:45;;;;;;;4.03;3.25;;;;;;;22.77;58.21;98784.13;5088798;28;20538;-53
2022/08/16 06:58:12;;;;;;;6.05;3.83;;;;;;;22.78;58.36;98785.78;5089583;28;20074;-57
2022/08/16 07:00:39;;;;;;;6.40;4.15;;;;;;;22.78;57.92;98793.03;5090249;28;20054;-52
2022/08/16 07:03:06;;;;;;;4.20;3.28;;;;;;;22.78;58.73;98785.78;5089703;28;20130;-49
2022/08/16 07:05:33;;;;;;;4.72;3.38;;;;;;;22.91;58.10;98793.25;5088384;28;20125;-55
2022/08/16 07:08:03;;;;;;;6.30;4.57;;;;;;;23.02;57.51;98800.94;5088758;28;20451;-52
2022/08/16 07:10:31;;;;;;;6.35;3.58;;;;;;;23.09;57.71;98807.28;5088971;28;20048;-48
2022/08/16 07:12:57;;;;;;;5.03;4.05;;;;;;;23.14;57.37;98804.88;5088885;28;20055;-53
2022/08/16 07:15:24;;;;;;;7.22;3.63;;;;;;;23.19;57.28;98809.72;5088338;28;20051;-55
2022/08/16 07:17:51;;;;;;;3.83;3.22;;;;;;;23.26;56.92;98818.75;5088576;28;20079;-52
2022/08/16 07:20:18;;;;;;;5.15;3.67;;;;;;;23.32;57.10;98812.63;5088289;28;20055;-51
2022/08/16 07:22:45;;;;;;;4.68;4.00;;;;;;;23.41;56.99;98809.88;5088868;28;20056;-53
2022/08/16 07:25:14;;;;;;;4.35;3.75;;;;;;;23.48;56.69;98813.50;5100063;28;20054;-55
2022/08/16 07:27:42;;;;;;;5.43;4.32;;;;;;;23.54;56.60;98818.97;5108720;28;20146;-50
2022/08/16 07:30:12;;;;;;;6.95;3.50;;;;;;;23.64;56.53;98818.72;5108828;28;20059;-54
2022/08/16 07:32:39;;;;;;;8.45;5.07;;;;;;;23.69;56.00;98813.63;5108820;28;20047;-53
2022/08/16 07:35:06;;;;;;;6.70;4.25;;;;;;;23.77;55.93;98818.94;5108712;28;20048;-50
2022/08/16 07:37:33;;;;;;;7.57;4.32;;;;;;;23.88;55.74;98823.06;5108887;28;20124;-53
2022/08/16 07:40:00;;;;;;;5.93;4.65;;;;;;;24.03;55.23;98825.75;5108697;28;20063;-49
2022/08/16 07:42:27;;;;;;;5.82;4.28;;;;;;;24.20;55.05;98821.84;5108353;28;20075;-53
2022/08/16 07:44:55;;;;;;;4.63;3.70;;;;;;;24.31;54.77;98825.09;5107930;28;20059;-52
2022/08/16 07:47:21;;;;;;;10.65;5.03;;;;;;;24.45;54.40;98826.94;5108384;28;20051;-56
2022/08/16 07:49:48;;;;;;;6.93;4.20;;;;;;;24.54;54.04;98823.16;5108373;28;20052;-51
2022/08/16 07:52:14;;;;;;;5.03;3.83;;;;;;;24.63;53.50;98826.53;5108414;28;20044;-48
2022/08/16 07:54:41;;;;;;;9.60;4.68;;;;;;;24.71;53.38;98820.19;5108467;28;20066;-47
2022/08/16 07:57:07;;;;;;;4.93;4.28;;;;;;;24.71;53.32;98815.66;5108603;28;20074;-48
2022/08/16 07:59:34;;;;;;;5.38;4.05;;;;;;;24.69;52.79;98819.59;5108520;28;20534;-66
2022/08/16 08:02:03;;;;;;;4.70;4.20;;;;;;;24.74;53.59;98820.66;5068017;28;20591;-65
2022/08/16 08:04:31;;;;;;;14.57;5.55;;;;;;;24.70;53.07;98824.75;5070322;28;20049;-65
2022/08/16 08:06:58;;;;;;;5.28;4.78;;;;;;;24.93;52.86;98824.59;5068682;28;20040;-70
2022/08/16 08:09:25;;;;;;;9.80;4.18;;;;;;;25.17;51.81;98826.09;5069015;28;20132;-70
2022/08/16 08:11:51;;;;;;;8.48;4.15;;;;;;;25.14;52.04;98831.88;5076393;28;20040;-69
2022/08/16 08:14:18;;;;;;;5.55;4.30;;;;;;;25.23;52.04;98819.94;5088044;28;20614;-72
2022/08/16 08:16:44;;;;;;;5.82;4.10;;;;;;;25.42;51.44;98831.09;5088138;28;20054;-70
2022/08/16 08:19:12;;;;;;;6.35;4.88;;;;;;;25.46;50.74;98838.63;5092710;28;20054;-71
2022/08/16 08:21:41;;;;;;;15.65;4.50;;;;;;;25.47;50.92;98837.59;5099218;28;20062;-68
2022/08/16 08:24:10;;;;;;;9.60;5.80;;;;;;;25.38;51.14;98843.34;5091702;28;20056;-67
2022/08/16 08:26:36;;;;;;;6.00;4.82;;;;;;;25.29;51.02;98842.63;5084397;28;20042;-66
2022/08/16 08:29:04;;;;;;;6.47;5.10;;;;;;;25.32;51.43;98850.31;5107880;28;20052;-68
2022/08/16 08:31:31;;;;;;;6.30;4.72;;;;;;;25.39;51.15;98851.22;5108016;28;20517;-66
2022/08/16 08:33:58;;;;;;;8.10;5.20;;;;;;;25.47;51.02;98864.59;5108526;28;20051;-66
2022/08/16 08:36:29;;;;;;;5.22;4.55;;;;;;;25.43;51.54;98862.47;5111875;28;20053;-72
2022/08/16 08:38:55;;;;;;;8.10;4.47;;;;;;;25.40;51.14;98862.84;5111956;27;20047;-67
2022/08/16 08:41:22;;;;;;;5.55;4.22;;;;;;;25.36;50.85;98867.81;5111381;28;20501;-66
2022/08/16 08:43:49;;;;;;;6.18;4.97;;;;;;;25.33;50.94;98856.56;5111440;28;20052;-67
2022/08/16 08:46:15;;;;;;;9.27;4.78;;;;;;;25.30;51.46;98871.25;5111484;28;20107;-67
2022/08/16 08:48:44;;;;;;;12.15;4.40;;;;;;;25.46;51.53;98867.47;5096485;28;20051;-67
2022/08/16 08:51:10;;;;;;;7.80;4.65;;;;;;;25.57;50.43;98868.81;5091310;28;20040;-67
2022/08/16 08:53:38;;;;;;;8.55;5.00;;;;;;;25.64;50.94;98864.28;5090765;28;20555;-67
2022/08/16 08:56:06;;;;;;;8.85;4.68;;;;;;;25.73;50.46;98870.41;5090734;28;20079;-69
2022/08/16 08:58:32;;;;;;;8.75;4.18;;;;;;;25.88;50.28;98865.75;5091034;28;20055;-67
2022/08/16 09:01:00;;;;;;;6.47;4.03;;;;;;;26.07;50.09;98869.66;5091036;28;20080;-67
2022/08/16 09:03:26;;;;;;;5.93;4.47;;;;;;;26.15;49.29;98865.94;5091040;28;20052;-67
2022/08/16 09:05:53;;;;;;;7.38;4.50;;;;;;;26.22;48.80;98861.41;5089681;28;20487;-68
2022/08/16 09:08:20;;;;;;;7.10;4.93;;;;;;;26.39;48.44;98865.47;5090570;28;20066;-69
2022/08/16 09:10:48;;;;;;;7.10;4.15;;;;;;;26.50;48.02;98862.16;5090132;28;20534;-68
2022/08/16 09:13:15;;;;;;;15.95;4.65;;;;;;;26.67;47.94;98865.41;5088560;28;20499;-69
2022/08/16 09:15:42;;;;;;;7.22;4.95;;;;;;;26.75;47.27;98865.25;5091467;28;20530;-68
2022/08/16 09:18:09;;;;;;;7.05;4.13;;;;;;;26.78;46.62;98855.88;5102836;28;20470;-68
2022/08/16 09:20:35;;;;;;;8.18;3.72;;;;;;;26.93;46.62;98861.13;5111644;28;20071;-66
2022/08/16 09:23:03;;;;;;;6.78;4.30;;;;;;;27.14;45.77;98855.53;5102429;28;20044;-68
2022/08/16 09:25:30;;;;;;;10.32;4.57;;;;;;;27.36;45.04;98864.34;5103538;28;20491;-68
2022/08/16 09:27:58;;;;;;;5.97;4.07;;;;;;;27.75;43.54;98859.16;5111043;28;20043;-68
2022/08/16 09:30:25;;;;;;;8.02;4.72;;;;;;;28.03;41.52;98859.78;5110858;28;20532;-68
2022/08/16 09:32:53;;;;;;;6.35;4.55;;;;;;;28.44;40.81;98847.78;5110093;28;20055;-68
2022/08/16 09:35:20;;;;;;;7.03;3.90;;;;;;;29.41;38.50;98852.31;5098321;28;20102;-68
2022/08/16 09:37:47;;;;;;;7.03;4.90;;;;;;;30.45;36.56;98850.75;5090999;28;20151;-68
2022/08/16 09:40:14;;;;;;;7.05;4.40;;;;;;;31.35;34.09;98847.22;5091173;28;20710;-67
2022/08/16 09:42:41;;;;;;;5.65;4.55;;;;;;;31.81;32.69;98848.38;5091145;28;20531;-69
2022/08/16 09:45:11;;;;;;;8.63;3.95;;;;;;;32.27;32.16;98841.25;5089999;28;20044;-67
2022/08/16 09:47:39;;;;;;;16.88;13.18;;;;;;;32.97;31.52;98841.31;5090737;28;20087;-67
2022/08/16 09:50:08;;;;;;;8.15;3.80;;;;;;;33.56;29.67;98842.66;5089853;28;20079;-68
2022/08/16 09:52:36;;;;;;;7.57;4.00;;;;;;;33.81;29.32;98849.63;5090100;28;20048;-67
2022/08/16 09:55:04;;;;;;;6.93;3.92;;;;;;;34.24;28.33;98841.75;5090333;28;20062;-67
2022/08/16 09:57:31;;;;;;;7.32;3.47;;;;;;;34.30;27.72;98841.59;5079120;28;20135;-68
2022/08/16 09:59:59;;;;;;;10.57;3.58;;;;;;;34.40;27.86;98836.25;5070363;28;20050;-67
2022/08/16 10:02:28;;;;;;;6.05;3.70;;;;;;;34.46;27.62;98845.38;5070270;28;20131;-67
2022/08/16 10:04:55;;;;;;;4.72;3.15;;;;;;;34.44;26.36;98847.53;5068969;28;20419;-69
2022/08/16 10:07:23;;;;;;;7.30;4.28;;;;;;;34.59;27.02;98846.91;5070024;28;20102;-68
2022/08/16 10:09:49;;;;;;;7.22;3.38;;;;;;;34.86;25.96;98854.34;5070410;28;20048;-68
2022/08/16 10:15:00;;;;;;;7.65;4.00;;;;;;;35.45;26.08;98846.19;5090397;28;20076;-68
2022/08/16 10:17:28;;;;;;;11.88;4.25;;;;;;;35.50;26.36;98848.97;5090486;28;20048;-68
2022/08/16 10:19:55;;;;;;;5.07;3.13;;;;;;;35.67;24.89;98840.63;5090509;28;20395;-67
2022/08/16 10:22:22;;;;;;;8.35;3.10;;;;;;;35.90;25.57;98848.44;5074033;28;20510;-67
2022/08/16 10:24:48;;;;;;;4.68;3.03;;;;;;;36.18;25.37;98851.09;5069715;28;20419;-69
2022/08/16 10:27:15;;;;;;;5.40;3.80;;;;;;;36.40;23.99;98842.72;5069901;28;20045;-68
2022/08/16 10:29:42;;;;;;;6.05;2.90;;;;;;;36.43;23.96;98844.91;5070046;28;20071;-68
2022/08/16 10:32:09;;;;;;;3.78;2.78;;;;;;;36.17;24.90;98850.28;5070300;28;20067;-68
2022/08/16 10:34:37;;;;;;;6.20;3.47;;;;;;;35.95;25.06;98857.81;5070034;28;20055;-69
2022/08/16 10:37:03;;;;;;;6.28;3.30;;;;;;;36.20;24.50;98854.41;5069968;28;20045;-68
2022/08/16 10:39:31;;;;;;;6.68;3.80;;;;;;;36.02;24.85;98853.75;5078140;28;20055;-68
2022/08/16 10:41:57;;;;;;;4.80;3.47;;;;;;;36.05;24.74;98855.94;5090105;28;20423;-69
2022/08/16 10:44:24;;;;;;;6.90;3.65;;;;;;;35.91;24.98;98852.00;5089778;28;20062;-68
2022/08/16 10:46:50;;;;;;;12.82;4.03;;;;;;;35.93;25.37;98860.00;5089952;28;20048;-66
2022/08/16 10:49:17;;;;;;;6.78;4.10;;;;;;;36.22;24.87;98852.25;5090002;28;20806;-67
2022/08/16 10:51:45;;;;;;;7.68;3.35;;;;;;;36.17;24.89;98857.72;5089579;28;20067;-67
2022/08/16 10:54:11;;;;;;;5.97;3.10;;;;;;;34.79;26.96;98851.78;5089325;28;20048;-68
2022/08/16 10:56:38;;;;;;;5.35;3.28;;;;;;;34.10;27.56;98850.34;5089200;28;20044;-69
2022/08/16 10:59:05;;;;;;;4.78;3.30;;;;;;;33.11;29.10;98850.91;5089507;28;20074;-68
2022/08/16 11:01:32;;;;;;;7.63;3.42;;;;;;;32.26;29.44;98857.84;5089805;28;20067;-69
2022/08/16 11:04:01;;;;;;;8.02;3.72;;;;;;;31.79;30.80;98861.41;5089867;28;20051;-69
2022/08/16 11:06:28;;;;;;;15.32;3.95;;;;;;;31.87;31.23;98854.75;5089893;28;20052;-70
2022/08/16 11:08:57;;;;;;;6.63;3.75;;;;;;;31.60;31.95;98851.66;5098090;28;20048;-69
2022/08/16 11:11:25;;;;;;;6.32;4.32;;;;;;;31.07;32.37;98855.22;5104670;28;20105;-69
2022/08/16 11:13:52;;;;;;;8.98;3.30;;;;;;;30.90;32.44;98860.47;5104140;28;20044;-70
2022/08/16 11:16:19;;;;;;;11.45;3.97;;;;;;;30.68;33.18;98863.63;5089820;28;20052;-70
2022/08/16 11:18:46;;;;;;;9.60;3.10;;;;;;;30.49;33.33;98862.00;5097904;28;20433;-68
2022/08/16 11:21:13;;;;;;;10.40;4.07;;;;;;;30.26;33.71;98859.97;5109642;28;20044;-67
2022/08/16 11:23:40;;;;;;;7.70;4.00;;;;;;;30.06;33.77;98862.88;5109673;28;20103;-69
2022/08/16 11:26:08;;;;;;;6.45;3.22;;;;;;;29.92;34.40;98862.16;5109786;28;20046;-67
2022/08/16 11:28:35;;;;;;;9.07;4.10;;;;;;;29.80;34.65;98863.94;5110028;28;20050;-68
2022/08/16 11:31:02;;;;;;;6.85;3.95;;;;;;;29.62;34.85;98868.22;5109684;28;20046;-68
2022/08/16 11:33:29;;;;;;;6.25;4.00;;;;;;;29.49;35.29;98876.50;5109815;28;20051;-68
2022/08/16 11:35:55;;;;;;;8.25;3.78;;;;;;;29.32;35.16;98879.75;5109654;28;20514;-69
2022/08/16 11:38:23;;;;;;;9.70;4.40;;;;;;;29.16;35.38;98879.44;5109391;28;20050;-69